Mount Pearl, Canada
Current Conditions -  °F | °C
As of 12:00 PM on Friday 28 Nov 2014 (Local Time) from CYYT Reporting Station
Snow Showers Snow Showers  
Wind Chill: -4°   Ceiling: 1100
Heat Index:   Visibility: 8mi
Dew Point:   Wind: 12mph
Humidity: 93%   Direction: 350°N
Pressure: 29.8"   Gusts: NA
Location:  47.52°N, 52.82°W
Report Text: CYYT 281500Z 35010KT 8SM R16/5500VP6000FT/U -SHSN BKN011 OVC015 01/00 A2980 RMK SC5SC3 SLP096
Loading
Personal Weather Stations






























Interactive Weather Map New forecast layout! Learn more

10-Day Weather Forecast

Advertisements
Track Severe Weather on mobile